createdAt,value
2019-05-15T00:01:20.644Z,101891.68
2019-05-15T00:03:50.261Z,101888.00
2019-05-15T00:06:19.902Z,101886.28
2019-05-15T00:08:49.934Z,101878.45
2019-05-15T00:11:19.581Z,101879.88
2019-05-15T00:13:49.202Z,101883.63
2019-05-15T00:16:19.364Z,101879.59
2019-05-15T00:18:48.995Z,101867.25
2019-05-15T00:21:19.031Z,101865.30
2019-05-15T00:23:50.300Z,101865.54
2019-05-15T00:26:20.665Z,101864.33
2019-05-15T00:28:50.355Z,101860.49
2019-05-15T00:31:20.104Z,101859.34
2019-05-15T00:33:49.927Z,101859.98
2019-05-15T00:36:19.676Z,101859.58
2019-05-15T00:38:50.053Z,101856.00
2019-05-15T00:41:19.743Z,101855.78
2019-05-15T00:43:50.007Z,101850.16
2019-05-15T00:46:19.612Z,101851.94
2019-05-15T00:48:49.264Z,101848.40
2019-05-15T00:51:19.716Z,101846.72
2019-05-15T00:53:49.832Z,101839.38
2019-05-15T00:56:19.675Z,101841.73
2019-05-15T00:58:49.283Z,101832.48
2019-05-15T01:01:19.427Z,101833.50
2019-05-15T01:03:49.441Z,101837.20
2019-05-15T01:06:19.342Z,101834.59
2019-05-15T01:08:48.980Z,101829.41
2019-05-15T01:11:19.306Z,101831.77
2019-05-15T01:13:49.026Z,101832.66
2019-05-15T01:16:19.082Z,101827.44
2019-05-15T01:18:50.579Z,101819.24
2019-05-15T01:21:20.203Z,101821.89
2019-05-15T01:23:49.947Z,101812.09
2019-05-15T01:26:19.583Z,101808.23
2019-05-15T01:28:49.822Z,101813.30
2019-05-15T01:31:21.330Z,101809.13
2019-05-15T01:33:50.987Z,101811.40
2019-05-15T01:36:20.603Z,101810.80
2019-05-15T01:38:50.757Z,101810.13
2019-05-15T01:41:20.379Z,101806.81
2019-05-15T01:43:50.069Z,101807.22
2019-05-15T01:46:19.694Z,101800.30
2019-05-15T01:48:49.582Z,101802.08
2019-05-15T01:51:19.142Z,101798.43
2019-05-15T01:53:49.291Z,101795.55
2019-05-15T01:56:19.059Z,101797.20
2019-05-15T01:58:49.235Z,101785.72
2019-05-15T02:01:19.349Z,101789.15
2019-05-15T02:03:49.503Z,101787.03
2019-05-15T02:06:19.281Z,101777.27
2019-05-15T02:08:49.800Z,101781.48
2019-05-15T02:11:19.538Z,101782.14
2019-05-15T02:13:49.219Z,101776.11
2019-05-15T02:16:19.258Z,101775.63
2019-05-15T02:18:49.279Z,101771.22
2019-05-15T02:21:18.895Z,101772.04
2019-05-15T02:23:48.547Z,101767.86
2019-05-15T02:26:18.980Z,101766.56
2019-05-15T02:28:49.228Z,101765.36
2019-05-15T02:31:19.801Z,101759.52
2019-05-15T02:33:50.200Z,101754.81
2019-05-15T02:36:20.781Z,101758.62
2019-05-15T02:38:50.763Z,101760.98
2019-05-15T02:41:21.536Z,101751.50
2019-05-15T02:43:51.198Z,101751.02
2019-05-15T02:46:20.822Z,101748.45
2019-05-15T02:48:50.767Z,101746.98
2019-05-15T02:51:20.387Z,101741.48
2019-05-15T02:53:50.490Z,101734.06
2019-05-15T02:56:20.819Z,101738.97
2019-05-15T02:58:50.757Z,101737.11
2019-05-15T03:01:24.172Z,101737.63
2019-05-15T03:03:55.780Z,101735.06
2019-05-15T03:06:25.470Z,101739.41
2019-05-15T03:08:55.136Z,101734.75
2019-05-15T03:11:24.834Z,101734.86
2019-05-15T03:13:54.464Z,101741.95
2019-05-15T03:16:24.476Z,101738.48
2019-05-15T03:18:55.921Z,101733.66
2019-05-15T03:21:25.713Z,101730.71
2019-05-15T03:23:55.336Z,101736.43
2019-05-15T03:26:24.994Z,101729.82
2019-05-15T03:28:54.609Z,101729.48
2019-05-15T03:31:47.840Z,101726.80
2019-05-15T03:33:55.588Z,101733.04
2019-05-15T03:36:31.072Z,101733.08
2019-05-15T03:38:58.724Z,101733.17
2019-05-15T03:41:29.811Z,101731.33
2019-05-15T03:43:59.687Z,101732.70
2019-05-15T03:46:29.377Z,101735.78
2019-05-15T03:49:00.428Z,101731.13
2019-05-15T03:51:30.512Z,101731.59
2019-05-15T03:54:00.559Z,101730.30
2019-05-15T03:56:30.275Z,101732.69
2019-05-15T03:58:59.998Z,101733.48
2019-05-15T04:01:38.503Z,101734.02
2019-05-15T04:04:00.951Z,101736.49
2019-05-15T04:06:30.621Z,101739.88
2019-05-15T04:09:00.228Z,101726.09
2019-05-15T04:11:29.872Z,101728.59
2019-05-15T04:13:59.662Z,101728.09
2019-05-15T04:16:29.770Z,101722.59
2019-05-15T04:18:59.633Z,101727.80
2019-05-15T04:21:30.361Z,101727.18
2019-05-15T04:24:00.543Z,101731.63
2019-05-15T04:26:32.533Z,101730.43
2019-05-15T04:29:02.150Z,101729.20
2019-05-15T04:31:50.352Z,101722.59
2019-05-15T04:34:03.246Z,101723.07
2019-05-15T04:36:32.876Z,101719.17
2019-05-15T04:39:02.586Z,101721.56
2019-05-15T04:41:32.230Z,101723.48
2019-05-15T04:44:01.848Z,101723.58
2019-05-15T04:46:31.515Z,101722.68
2019-05-15T04:49:01.132Z,101723.75
2019-05-15T04:51:31.486Z,101716.32
2019-05-15T04:54:03.472Z,101713.27
2019-05-15T04:56:33.552Z,101716.05
2019-05-15T04:59:03.171Z,101715.12
2019-05-15T05:01:32.893Z,101713.44
2019-05-15T05:04:02.523Z,101712.38
2019-05-15T05:06:32.518Z,101716.28
2019-05-15T05:09:05.473Z,101723.19
2019-05-15T05:11:38.147Z,101718.56
2019-05-15T05:14:08.459Z,101721.87
2019-05-15T05:16:39.247Z,101726.95
2019-05-15T05:19:09.235Z,101722.56
2019-05-15T05:21:38.895Z,101720.44
2019-05-15T05:24:08.519Z,101717.27
2019-05-15T05:26:38.412Z,101717.27
2019-05-15T05:29:08.626Z,101718.47
2019-05-15T05:31:39.406Z,101710.63
2019-05-15T05:34:08.999Z,101705.11
2019-05-15T05:36:38.818Z,101703.88
2019-05-15T05:39:09.615Z,101704.36
2019-05-15T05:41:39.979Z,101706.61
2019-05-15T05:44:09.599Z,101702.58
2019-05-15T05:46:39.861Z,101707.23
2019-05-15T05:49:09.567Z,101702.38
2019-05-15T05:51:39.240Z,101707.48
2019-05-15T05:54:09.894Z,101709.33
2019-05-15T05:56:40.055Z,101715.73
2019-05-15T05:59:09.713Z,101711.77
2019-05-15T06:01:43.922Z,101714.53
2019-05-15T06:04:10.792Z,101706.66
2019-05-15T06:06:40.416Z,101715.66
2019-05-15T06:09:10.078Z,101708.37
2019-05-15T06:11:39.712Z,101711.52
2019-05-15T06:14:09.384Z,101707.73
2019-05-15T06:16:39.018Z,101702.70
2019-05-15T06:19:08.689Z,101700.47
2019-05-15T06:21:52.512Z,101701.98
2019-05-15T06:24:13.101Z,101701.02
2019-05-15T06:26:40.989Z,101703.08
2019-05-15T06:29:10.668Z,101711.16
2019-05-15T06:31:40.288Z,101709.27
2019-05-15T06:34:09.946Z,101705.47
2019-05-15T06:36:39.562Z,101706.70
2019-05-15T06:39:09.218Z,101704.45
2019-05-15T06:41:39.201Z,101703.76
2019-05-15T06:44:08.893Z,101707.63
2019-05-15T06:46:39.264Z,101706.48
2019-05-15T06:49:09.035Z,101707.62
2019-05-15T06:51:38.664Z,101711.13
2019-05-15T06:54:08.853Z,101708.27
2019-05-15T06:56:39.033Z,101706.34
2019-05-15T06:59:09.034Z,101703.52
2019-05-15T07:01:38.774Z,101701.37
2019-05-15T07:04:08.597Z,101703.20
2019-05-15T07:06:38.339Z,101696.79
2019-05-15T07:09:09.472Z,101691.75
2019-05-15T07:11:39.310Z,101694.03
2019-05-15T07:14:09.121Z,101690.70
2019-05-15T07:16:39.207Z,101686.23
2019-05-15T07:19:10.252Z,101689.92
2019-05-15T07:21:39.980Z,101701.42
2019-05-15T07:24:09.670Z,101695.38
2019-05-15T07:26:39.446Z,101684.83
2019-05-15T07:29:09.118Z,101689.38
2019-05-15T07:31:38.753Z,101688.41
2019-05-15T07:34:08.549Z,101684.59
2019-05-15T07:36:39.106Z,101684.30
2019-05-15T07:39:09.344Z,101679.66
2019-05-15T07:41:39.378Z,101682.10
2019-05-15T07:44:09.079Z,101683.36
2019-05-15T07:46:38.694Z,101687.64
2019-05-15T07:49:09.054Z,101682.39
2019-05-15T07:51:38.852Z,101683.09
2019-05-15T07:54:09.313Z,101679.55
2019-05-15T07:56:39.043Z,101682.84
2019-05-15T07:59:08.707Z,101678.37
2019-05-15T08:01:38.757Z,101682.72
2019-05-15T08:04:25.080Z,101671.07
2019-05-15T08:06:39.810Z,101678.37
2019-05-15T08:09:11.381Z,101671.23
2019-05-15T08:11:40.974Z,101671.48
2019-05-15T08:14:10.656Z,101669.73
2019-05-15T08:16:40.273Z,101665.94
2019-05-15T08:19:09.937Z,101664.02
2019-05-15T08:21:39.556Z,101675.67
2019-05-15T08:24:09.346Z,101670.30
2019-05-15T08:26:44.821Z,101673.97
2019-05-15T08:29:10.341Z,101667.08
2019-05-15T08:31:40.069Z,101667.13
2019-05-15T08:34:15.940Z,101667.85
2019-05-15T08:36:41.157Z,101663.16
2019-05-15T08:39:10.779Z,101665.97
2019-05-15T08:41:40.444Z,101662.51
2019-05-15T08:44:10.095Z,101665.97
2019-05-15T08:46:39.948Z,101663.56
2019-05-15T08:49:09.573Z,101664.63
2019-05-15T08:51:39.284Z,101669.52
2019-05-15T08:54:08.898Z,101663.48
2019-05-15T08:56:39.341Z,101672.17
2019-05-15T08:59:09.155Z,101665.39
2019-05-15T09:01:38.867Z,101663.39
2019-05-15T09:04:09.065Z,101657.96
2019-05-15T09:06:41.472Z,101654.05
2019-05-15T09:09:10.129Z,101656.67
2019-05-15T09:11:39.847Z,101651.97
2019-05-15T09:14:09.460Z,101656.78
2019-05-15T09:16:39.131Z,101653.23
2019-05-15T09:19:08.757Z,101646.05
2019-05-15T09:21:38.901Z,101651.39
2019-05-15T09:24:09.354Z,101649.48
2019-05-15T09:26:40.477Z,101649.08
2019-05-15T09:29:10.317Z,101650.27
2019-05-15T09:31:39.978Z,101648.84
2019-05-15T09:34:09.623Z,101644.03
2019-05-15T09:36:42.301Z,101642.47
2019-05-15T09:39:13.340Z,101637.16
2019-05-15T09:41:42.024Z,101639.96
2019-05-15T09:44:11.652Z,101633.57
2019-05-15T09:46:41.322Z,101628.98
2019-05-15T09:49:10.961Z,101629.17
2019-05-15T09:51:40.629Z,101626.52
2019-05-15T09:54:10.255Z,101626.87
2019-05-15T09:56:39.901Z,101625.03
2019-05-15T09:59:09.525Z,101618.41
2019-05-15T10:01:39.633Z,101618.32
2019-05-15T10:04:09.298Z,101623.17
2019-05-15T10:06:39.263Z,101617.09
2019-05-15T10:09:09.270Z,101613.41
2019-05-15T10:11:38.943Z,101613.54
2019-05-15T10:14:09.787Z,101616.48
2019-05-15T10:16:39.825Z,101612.73
2019-05-15T10:19:09.763Z,101612.12
2019-05-15T10:21:40.258Z,101606.55
2019-05-15T10:24:10.013Z,101602.63
2019-05-15T10:26:39.792Z,101601.98
2019-05-15T10:29:09.490Z,101598.39
2019-05-15T10:31:40.599Z,101590.83
2019-05-15T10:34:10.229Z,101591.55
2019-05-15T10:36:39.899Z,101602.57
2019-05-15T10:39:09.587Z,101597.52
2019-05-15T10:41:39.496Z,101602.63
2019-05-15T10:44:10.533Z,101590.75
2019-05-15T10:46:40.223Z,101597.62
2019-05-15T10:49:09.853Z,101592.55
2019-05-15T10:51:39.915Z,101592.88
2019-05-15T10:54:09.515Z,101590.52
2019-05-15T10:56:39.271Z,101589.50
2019-05-15T10:59:08.954Z,101585.04
2019-05-15T11:01:38.935Z,101578.76
2019-05-15T11:04:09.412Z,101586.86
2019-05-15T11:06:39.113Z,101586.91
2019-05-15T11:09:10.471Z,101580.55
2019-05-15T11:11:40.797Z,101577.66
2019-05-15T11:14:10.472Z,101580.09
2019-05-15T11:16:40.105Z,101579.10
2019-05-15T11:19:09.789Z,101571.66
2019-05-15T11:21:39.524Z,101567.28
2019-05-15T11:24:09.191Z,101569.27
2019-05-15T11:26:39.196Z,101569.52
2019-05-15T11:29:09.598Z,101568.86
2019-05-15T11:31:39.588Z,101565.20
2019-05-15T11:34:09.501Z,101556.88
2019-05-15T11:36:39.258Z,101560.31
2019-05-15T11:39:09.064Z,101558.16
2019-05-15T11:41:38.866Z,101554.64
2019-05-15T11:44:08.547Z,101555.04
2019-05-15T11:46:39.044Z,101546.34
2019-05-15T11:49:09.544Z,101547.34
2019-05-15T11:51:39.242Z,101542.05
2019-05-15T11:54:08.904Z,101539.80
2019-05-15T11:56:39.376Z,101537.98
2019-05-15T11:59:09.076Z,101536.59
2019-05-15T12:01:38.702Z,101534.59
2019-05-15T12:04:09.220Z,101528.53
2019-05-15T12:06:39.077Z,101528.14
2019-05-15T12:09:09.249Z,101530.45
2019-05-15T12:11:41.104Z,101538.61
2019-05-15T12:14:10.410Z,101533.23
2019-05-15T12:16:40.325Z,101528.14
2019-05-15T12:19:16.679Z,101531.23
2019-05-15T12:21:41.455Z,101521.89
2019-05-15T12:24:11.105Z,101524.45
2019-05-15T12:26:40.747Z,101518.14
2019-05-15T12:29:10.461Z,101517.98
2019-05-15T12:31:40.115Z,101514.27
2019-05-15T12:34:09.821Z,101511.20
2019-05-15T12:36:52.076Z,101507.13
2019-05-15T12:39:13.791Z,101512.75
2019-05-15T13:01:53.647Z,101486.83
2019-05-15T13:04:23.306Z,101483.29
2019-05-15T13:07:10.442Z,101489.67
2019-05-15T13:09:24.545Z,101484.67
2019-05-15T13:11:54.522Z,101480.74
2019-05-15T13:14:24.181Z,101477.27
2019-05-15T13:16:53.822Z,101470.91
2019-05-15T13:19:23.489Z,101474.75
2019-05-15T13:21:53.123Z,101473.19
2019-05-15T13:24:22.805Z,101467.33
2019-05-15T13:26:52.436Z,101464.84
2019-05-15T13:29:22.417Z,101464.94
2019-05-15T13:31:52.416Z,101461.83
2019-05-15T13:34:22.069Z,101462.12
2019-05-15T13:36:51.725Z,101458.03
2019-05-15T13:39:21.816Z,101448.98
2019-05-15T13:41:51.489Z,101448.65
2019-05-15T13:44:21.121Z,101450.13
2019-05-15T13:46:51.026Z,101443.27
2019-05-15T13:49:20.665Z,101436.30
2019-05-15T13:51:50.341Z,101432.38
2019-05-15T13:54:20.512Z,101430.80
2019-05-15T13:56:50.172Z,101432.71
2019-05-15T13:59:19.802Z,101432.93
2019-05-15T14:01:49.548Z,101425.75
2019-05-15T14:04:19.180Z,101415.44
2019-05-15T14:06:48.950Z,101419.56
2019-05-15T14:09:19.463Z,101422.58
2019-05-15T14:11:49.852Z,101415.73
2019-05-15T14:14:19.492Z,101416.70
2019-05-15T14:16:49.741Z,101421.95
2019-05-15T14:19:19.371Z,101416.48
2019-05-15T14:21:49.575Z,101412.44
2019-05-15T14:24:19.389Z,101414.20
2019-05-15T14:26:49.727Z,101412.79
2019-05-15T14:29:19.366Z,101408.52
2019-05-15T14:31:49.565Z,101409.54
2019-05-15T14:34:19.217Z,101400.93
2019-05-15T14:36:48.886Z,101401.28
2019-05-15T14:39:20.827Z,101399.33
2019-05-15T14:41:50.595Z,101399.45
2019-05-15T14:44:21.663Z,101390.28
2019-05-15T14:46:51.673Z,101386.42
2019-05-15T14:49:21.787Z,101386.01
2019-05-15T14:52:04.503Z,101387.31
2019-05-15T14:54:22.790Z,101380.62
2019-05-15T14:56:52.533Z,101384.38
2019-05-15T14:59:22.172Z,101381.16
2019-05-15T15:01:51.838Z,101379.48
2019-05-15T15:04:21.972Z,101367.62
2019-05-15T15:06:51.647Z,101371.02
2019-05-15T15:09:21.686Z,101372.93
2019-05-15T15:11:51.346Z,101367.69
2019-05-15T15:14:20.989Z,101365.48
2019-05-15T15:16:51.095Z,101371.10
2019-05-15T15:19:20.737Z,101372.32
2019-05-15T15:21:50.569Z,101368.22
2019-05-15T15:24:20.203Z,101369.45
2019-05-15T15:26:49.932Z,101367.73
2019-05-15T15:29:19.560Z,101359.58
2019-05-15T15:31:49.945Z,101361.16
2019-05-15T15:34:19.827Z,101355.91
2019-05-15T15:36:49.622Z,101360.04
2019-05-15T15:39:19.258Z,101350.84
2019-05-15T15:41:48.911Z,101355.14
2019-05-15T15:44:18.555Z,101343.44
2019-05-15T15:46:48.663Z,101340.69
2019-05-15T15:49:18.743Z,101340.80
2019-05-15T15:51:48.862Z,101335.36
2019-05-15T15:54:18.941Z,101330.48
2019-05-15T15:56:48.777Z,101332.27
2019-05-15T15:59:18.402Z,101332.27
2019-05-15T16:01:49.390Z,101328.80
2019-05-15T16:04:19.627Z,101325.13
2019-05-15T16:06:49.262Z,101325.70
2019-05-15T16:09:18.954Z,101320.61
2019-05-15T16:11:49.326Z,101318.12
2019-05-15T16:14:19.716Z,101316.86
2019-05-15T16:16:49.428Z,101316.51
2019-05-15T16:19:19.603Z,101313.22
2019-05-15T16:21:49.662Z,101308.98
2019-05-15T16:24:21.888Z,101309.73
2019-05-15T16:26:51.132Z,101303.70
2019-05-15T16:29:21.083Z,101301.65
2019-05-15T16:31:50.719Z,101301.91
2019-05-15T16:34:20.406Z,101302.50
2019-05-15T16:36:50.581Z,101302.96
2019-05-15T16:39:20.243Z,101301.06
2019-05-15T16:41:50.407Z,101304.55
2019-05-15T16:44:20.354Z,101295.56
2019-05-15T16:46:50.383Z,101299.81
2019-05-15T16:49:20.051Z,101298.66
2019-05-15T16:51:49.755Z,101299.03
2019-05-15T16:54:19.740Z,101301.46
2019-05-15T16:56:49.388Z,101304.86
2019-05-15T16:59:19.552Z,101304.94
2019-05-15T17:01:49.192Z,101302.89
2019-05-15T17:04:18.859Z,101302.05
2019-05-15T17:06:49.375Z,101303.55
2019-05-15T17:09:21.744Z,101304.48
2019-05-15T17:11:51.124Z,101304.02
2019-05-15T17:14:21.159Z,101306.20
2019-05-15T17:16:50.799Z,101306.97
2019-05-15T17:19:20.458Z,101309.80
2019-05-15T17:21:50.389Z,101316.55
2019-05-15T17:24:20.056Z,101303.82
2019-05-15T17:26:49.757Z,101307.50
2019-05-15T17:29:19.700Z,101306.45
2019-05-15T17:31:49.337Z,101310.95
2019-05-15T17:34:19.624Z,101311.87
2019-05-15T17:36:49.250Z,101311.70
2019-05-15T17:39:33.435Z,101315.23
2019-05-15T17:41:50.376Z,101308.86
2019-05-15T17:44:20.321Z,101316.73
2019-05-15T17:46:50.393Z,101312.88
2019-05-15T17:49:20.045Z,101315.39
2019-05-15T17:51:49.697Z,101315.01
2019-05-15T17:54:19.708Z,101313.41
2019-05-15T17:56:49.446Z,101317.39
2019-05-15T17:59:19.743Z,101317.36
2019-05-15T18:01:49.378Z,101308.81
2019-05-15T18:04:19.730Z,101308.27
2019-05-15T18:06:49.372Z,101312.77
2019-05-15T18:09:19.721Z,101312.55
2019-05-15T18:11:49.721Z,101311.52
2019-05-15T18:14:19.798Z,101311.86
2019-05-15T18:16:50.941Z,101312.42
2019-05-15T18:19:20.610Z,101303.89
2019-05-15T18:21:50.283Z,101311.28
2019-05-15T18:24:20.573Z,101312.01
2019-05-15T18:26:50.241Z,101316.05
2019-05-15T18:29:20.569Z,101305.33
2019-05-15T18:31:50.241Z,101302.41
2019-05-15T18:34:20.569Z,101300.30
2019-05-15T18:36:50.234Z,101304.28
2019-05-15T18:39:23.318Z,101303.70
2019-05-15T18:41:52.993Z,101313.57
2019-05-15T18:44:22.627Z,101308.04
2019-05-15T18:46:52.533Z,101307.91
2019-05-15T18:49:22.198Z,101296.91
2019-05-15T18:51:52.550Z,101308.01
2019-05-15T18:54:22.201Z,101309.23
2019-05-15T18:56:52.557Z,101305.16
2019-05-15T18:59:22.194Z,101304.77
2019-05-15T19:01:51.857Z,101305.71
2019-05-15T19:04:21.981Z,101308.48
2019-05-15T19:06:51.639Z,101302.70
2019-05-15T19:09:21.672Z,101291.16
2019-05-15T19:11:51.332Z,101293.11
2019-05-15T19:14:20.967Z,101290.34
2019-05-15T19:16:51.028Z,101281.52
2019-05-15T19:19:20.664Z,101284.94
2019-05-15T19:21:50.331Z,101281.88
2019-05-15T19:24:20.568Z,101275.29
2019-05-15T19:26:50.225Z,101275.45
2019-05-15T19:29:20.570Z,101272.69
2019-05-15T19:31:50.516Z,101269.28
2019-05-15T19:34:20.550Z,101265.83
2019-05-15T19:36:50.216Z,101263.61
2019-05-15T19:39:19.845Z,101267.84
2019-05-15T19:41:49.616Z,101261.40
2019-05-15T19:44:19.236Z,101260.00
2019-05-15T19:46:48.900Z,101253.31
2019-05-15T19:49:18.536Z,101248.09
2019-05-15T19:51:48.719Z,101244.88
2019-05-15T19:54:18.503Z,101236.95
2019-05-15T19:56:48.309Z,101240.72
2019-05-15T19:59:22.412Z,101239.88
2019-05-15T20:01:49.789Z,101234.04
2019-05-15T20:04:20.935Z,101228.75
2019-05-15T20:06:51.482Z,101225.98
2019-05-15T20:09:21.151Z,101222.06
2019-05-15T20:11:51.260Z,101220.36
2019-05-15T20:14:20.882Z,101215.53
2019-05-15T20:16:54.517Z,101214.69
2019-05-15T20:19:24.220Z,101209.98
2019-05-15T20:21:54.411Z,101205.92
2019-05-15T20:24:24.041Z,101201.86
2019-05-15T20:26:53.698Z,101201.49
2019-05-15T20:29:23.323Z,101201.70
2019-05-15T20:31:55.859Z,101199.55
2019-05-15T20:34:24.854Z,101190.12
2019-05-15T20:36:54.547Z,101189.13
2019-05-15T20:39:24.195Z,101181.84
2019-05-15T20:41:54.345Z,101173.25
2019-05-15T20:44:23.990Z,101178.98
2019-05-15T20:46:55.039Z,101174.45
2019-05-15T20:49:25.738Z,101169.53
2019-05-15T20:51:58.252Z,101166.02
2019-05-15T20:54:28.467Z,101161.80
2019-05-15T20:56:58.453Z,101156.09
2019-05-15T20:59:28.172Z,101156.09
2019-05-15T21:01:59.311Z,101148.90
2019-05-15T21:04:29.340Z,101144.13
2019-05-15T21:06:59.004Z,101146.03
2019-05-15T21:09:30.751Z,101131.67
2019-05-15T21:12:00.223Z,101129.89
2019-05-15T21:14:29.884Z,101126.67
2019-05-15T21:16:59.504Z,101128.27
2019-05-15T21:19:32.734Z,101122.98
2019-05-15T21:22:02.359Z,101118.25
2019-05-15T21:24:32.124Z,101116.36
2019-05-15T21:27:01.751Z,101107.38
2019-05-15T21:29:31.403Z,101111.55
2019-05-15T21:32:01.032Z,101103.06
2019-05-15T21:34:37.526Z,101098.55
2019-05-15T21:37:02.108Z,101104.02
2019-05-15T21:39:31.747Z,101090.27
2019-05-15T21:42:01.370Z,101101.65
2019-05-15T21:44:31.017Z,101099.62
2019-05-15T21:47:00.630Z,101095.41
2019-05-15T21:49:30.396Z,101092.34
2019-05-15T21:52:00.023Z,101087.95
2019-05-15T21:54:29.669Z,101089.65
2019-05-15T21:57:18.634Z,101081.27
2019-05-15T21:59:31.015Z,101079.56
2019-05-15T22:02:00.639Z,101078.13
2019-05-15T22:04:30.659Z,101069.27
2019-05-15T22:07:00.265Z,101071.37
2019-05-15T22:09:30.202Z,101073.81
2019-05-15T22:12:01.198Z,101073.81
2019-05-15T22:14:31.016Z,101071.69
2019-05-15T22:17:00.646Z,101072.97
2019-05-15T22:19:30.429Z,101070.65
2019-05-15T22:22:00.027Z,101066.90
2019-05-15T22:24:29.967Z,101059.48
2019-05-15T22:26:59.594Z,101058.96
2019-05-15T22:29:29.243Z,101055.17
2019-05-15T22:31:59.136Z,101051.45
2019-05-15T22:34:28.904Z,101050.70
2019-05-15T22:36:58.519Z,101046.45
2019-05-15T22:39:28.164Z,101045.98
2019-05-15T22:41:58.051Z,101032.59
2019-05-15T22:44:28.167Z,101032.42
2019-05-15T22:46:58.228Z,101027.55
2019-05-15T22:49:28.806Z,101024.75
2019-05-15T22:51:58.528Z,101020.95
2019-05-15T22:54:28.196Z,101024.50
2019-05-15T22:56:58.177Z,101017.58
2019-05-15T22:59:28.333Z,101018.66
2019-05-15T23:01:58.260Z,101013.50
2019-05-15T23:04:28.690Z,101009.19
2019-05-15T23:06:58.559Z,101006.41
2019-05-15T23:09:28.527Z,101006.80
2019-05-15T23:11:58.844Z,100994.02
2019-05-15T23:14:28.856Z,100997.20
2019-05-15T23:16:59.019Z,100988.67
2019-05-15T23:19:28.862Z,100989.59
2019-05-15T23:21:59.170Z,100984.66
2019-05-15T23:24:29.113Z,100977.95
2019-05-15T23:26:58.858Z,100969.83
2019-05-15T23:29:28.576Z,100969.20
2019-05-15T23:31:58.487Z,100966.70
2019-05-15T23:34:28.219Z,100962.05
2019-05-15T23:36:57.874Z,100960.29
2019-05-15T23:39:27.499Z,100963.79
2019-05-15T23:41:58.492Z,100957.33
2019-05-15T23:44:28.155Z,100954.64
2019-05-15T23:46:57.817Z,100953.34
2019-05-15T23:49:27.964Z,100953.27
2019-05-15T23:51:58.178Z,100941.69
2019-05-15T23:54:30.742Z,100942.89
2019-05-15T23:57:00.416Z,100933.84
2019-05-15T23:59:30.244Z,100936.25
